createdAt,value
2022-10-05T00:01:01.747Z,45.30
2022-10-05T00:03:36.998Z,45.50
2022-10-05T00:06:05.025Z,45.30
2022-10-05T00:08:35.522Z,45.00
2022-10-05T00:11:08.339Z,45.00
2022-10-05T00:13:36.327Z,45.20
2022-10-05T00:16:13.298Z,44.70
2022-10-05T00:18:41.324Z,44.50
2022-10-05T00:21:16.915Z,44.60
2022-10-05T00:23:44.883Z,44.80
2022-10-05T00:26:20.404Z,44.70
2022-10-05T00:28:49.037Z,44.40
2022-10-05T00:31:20.673Z,44.50
2022-10-05T00:33:49.785Z,44.50
2022-10-05T00:36:18.365Z,44.40
2022-10-05T00:38:46.727Z,44.30
2022-10-05T00:41:21.110Z,44.30
2022-10-05T00:44:12.066Z,44.30
2022-10-05T00:46:54.232Z,44.50
2022-10-05T00:49:37.416Z,44.50
2022-10-05T00:52:20.072Z,44.70
2022-10-05T00:54:55.273Z,44.70
2022-10-05T00:57:35.039Z,45.00
2022-10-05T01:00:08.788Z,45.20
2022-10-05T01:02:48.142Z,45.30
2022-10-05T01:05:25.143Z,45.20
2022-10-05T01:08:09.416Z,45.10
2022-10-05T01:10:43.155Z,44.80
2022-10-05T01:13:21.777Z,44.80
2022-10-05T01:15:56.422Z,44.60
2022-10-05T01:18:34.221Z,44.30
2022-10-05T01:21:07.181Z,44.10
2022-10-05T01:24:14.511Z,43.80
2022-10-05T01:27:00.747Z,43.90
2022-10-05T01:29:36.942Z,44.40
2022-10-05T01:32:15.194Z,45.00
2022-10-05T01:34:45.917Z,45.20
2022-10-05T01:37:20.920Z,45.10
2022-10-05T01:39:56.832Z,45.00
2022-10-05T01:42:35.329Z,45.10
2022-10-05T01:45:11.935Z,44.80
2022-10-05T01:47:45.564Z,44.70
2022-10-05T01:50:23.030Z,45.10
2022-10-05T01:53:04.898Z,44.80
2022-10-05T01:55:42.818Z,44.90
2022-10-05T01:58:23.950Z,44.90
2022-10-05T02:01:01.585Z,44.80
2022-10-05T02:03:34.385Z,45.10
2022-10-05T02:06:07.622Z,45.90
2022-10-05T02:08:40.303Z,46.00
2022-10-05T02:11:11.837Z,45.70
2022-10-05T02:13:44.577Z,45.90
2022-10-05T02:16:18.502Z,46.50
2022-10-05T02:18:52.197Z,46.10
2022-10-05T02:21:22.064Z,45.60
2022-10-05T02:23:53.568Z,45.30
2022-10-05T02:26:23.388Z,45.10
2022-10-05T02:28:55.605Z,45.10
2022-10-05T02:31:29.662Z,45.10
2022-10-05T02:34:27.504Z,45.20
2022-10-05T02:37:13.779Z,45.10
2022-10-05T02:39:53.408Z,44.80
2022-10-05T02:42:29.848Z,44.50
2022-10-05T02:45:08.116Z,44.20
2022-10-05T02:47:49.286Z,44.40
2022-10-05T02:50:27.085Z,44.20
2022-10-05T02:53:06.167Z,44.10
2022-10-05T02:55:42.636Z,44.00
2022-10-05T02:58:16.515Z,43.90
2022-10-05T03:00:50.205Z,43.60
2022-10-05T03:03:29.119Z,43.50
2022-10-05T03:06:04.380Z,43.50
2022-10-05T03:08:41.106Z,43.30
2022-10-05T03:11:16.122Z,43.70
2022-10-05T03:13:49.453Z,44.00
2022-10-05T03:16:31.264Z,43.80
2022-10-05T03:19:14.795Z,43.70
2022-10-05T03:21:54.362Z,43.70
2022-10-05T03:24:40.121Z,44.80
2022-10-05T03:27:18.509Z,44.70
2022-10-05T03:29:55.917Z,44.70
2022-10-05T03:32:33.265Z,45.10
2022-10-05T03:35:07.641Z,45.90
2022-10-05T03:37:43.574Z,45.60
2022-10-05T03:40:23.175Z,45.80
2022-10-05T03:43:02.898Z,45.30
2022-10-05T03:45:37.713Z,45.30
2022-10-05T03:48:10.608Z,45.40
2022-10-05T03:50:46.944Z,46.00
2022-10-05T03:53:20.098Z,45.70
2022-10-05T03:55:55.094Z,46.00
2022-10-05T03:58:29.506Z,45.90
2022-10-05T04:01:04.749Z,45.70
2022-10-05T04:03:39.032Z,45.70
2022-10-05T04:06:15.744Z,45.50
2022-10-05T04:08:50.187Z,46.00
2022-10-05T04:11:25.121Z,45.90
2022-10-05T04:13:58.843Z,45.80
2022-10-05T04:16:29.197Z,45.70
2022-10-05T04:19:05.120Z,45.50
2022-10-05T04:21:39.168Z,45.90
2022-10-05T04:24:14.566Z,46.00
2022-10-05T04:26:51.451Z,45.40
2022-10-05T04:29:29.765Z,45.30
2022-10-05T04:32:09.445Z,45.10
2022-10-05T04:34:54.418Z,44.70
2022-10-05T04:37:31.357Z,44.70
2022-10-05T04:40:16.479Z,45.10
2022-10-05T04:42:50.091Z,45.60
2022-10-05T04:45:31.399Z,45.70
2022-10-05T04:48:37.593Z,45.60
2022-10-05T04:51:17.564Z,45.70
2022-10-05T04:53:58.213Z,46.20
2022-10-05T04:56:35.277Z,46.00
2022-10-05T04:59:34.099Z,46.60
2022-10-05T05:02:08.836Z,47.00
2022-10-05T05:04:51.782Z,47.00
2022-10-05T05:07:38.607Z,46.90
2022-10-05T05:10:44.639Z,46.50
2022-10-05T05:13:38.994Z,46.70
2022-10-05T05:16:12.452Z,47.40
2022-10-05T05:19:05.177Z,47.50
2022-10-05T05:21:42.907Z,47.80
2022-10-05T05:24:20.302Z,47.20
2022-10-05T05:27:05.096Z,48.30
2022-10-05T05:29:44.539Z,48.50
2022-10-05T05:32:24.972Z,47.70
2022-10-05T05:35:08.213Z,47.50
2022-10-05T05:37:40.120Z,47.20
2022-10-05T05:40:16.547Z,47.00
2022-10-05T05:42:55.360Z,46.70
2022-10-05T05:45:34.952Z,46.60
2022-10-05T05:48:09.905Z,46.30
2022-10-05T05:50:49.740Z,45.90
2022-10-05T05:53:21.606Z,45.90
2022-10-05T05:55:54.830Z,45.80
2022-10-05T05:58:30.599Z,45.30
2022-10-05T06:01:03.117Z,44.90
2022-10-05T06:03:38.078Z,44.70
2022-10-05T06:06:11.652Z,44.70
2022-10-05T06:08:44.587Z,44.40
2022-10-05T06:11:30.110Z,44.50
2022-10-05T06:14:05.408Z,44.70
2022-10-05T06:16:42.046Z,44.90
2022-10-05T06:19:14.914Z,45.00
2022-10-05T06:21:48.359Z,45.00
2022-10-05T06:24:23.035Z,45.20
2022-10-05T06:27:27.963Z,45.70
2022-10-05T06:30:06.653Z,46.10
2022-10-05T06:32:58.813Z,46.40
2022-10-05T06:35:42.484Z,46.80
2022-10-05T06:38:32.646Z,47.30
2022-10-05T06:41:12.632Z,47.40
2022-10-05T06:43:59.755Z,47.00
2022-10-05T06:46:53.806Z,46.50
2022-10-05T06:49:58.283Z,46.20
2022-10-05T06:52:52.995Z,46.40
2022-10-05T06:55:31.309Z,46.10
2022-10-05T06:58:07.982Z,45.70
2022-10-05T07:00:41.819Z,46.20
2022-10-05T07:03:23.306Z,46.20
2022-10-05T07:06:02.619Z,46.50
2022-10-05T07:08:48.598Z,46.20
2022-10-05T07:11:28.957Z,46.60
2022-10-05T07:14:20.908Z,46.40
2022-10-05T07:17:07.679Z,45.90
2022-10-05T07:19:45.318Z,45.50
2022-10-05T07:22:34.357Z,46.00
2022-10-05T07:25:11.435Z,45.90
2022-10-05T07:27:49.476Z,44.90
2022-10-05T07:30:21.112Z,45.20
2022-10-05T07:32:59.682Z,45.20
2022-10-05T07:35:57.933Z,45.10
2022-10-05T07:38:32.899Z,45.40
2022-10-05T07:41:07.340Z,45.40
2022-10-05T07:44:01.547Z,45.50
2022-10-05T07:46:46.558Z,44.00
2022-10-05T07:49:24.290Z,45.10
2022-10-05T07:51:58.171Z,44.20
2022-10-05T07:54:31.758Z,45.50
2022-10-05T07:57:07.146Z,45.00
2022-10-05T07:59:41.751Z,45.90
2022-10-05T08:02:20.171Z,45.00
2022-10-05T08:04:56.480Z,45.60
2022-10-05T08:07:25.965Z,46.00
2022-10-05T08:10:00.533Z,44.90
2022-10-05T08:12:33.285Z,45.60
2022-10-05T08:15:06.276Z,45.70
2022-10-05T08:17:42.175Z,46.30
2022-10-05T08:20:36.263Z,46.60
2022-10-05T08:23:15.605Z,46.70
2022-10-05T08:25:51.705Z,48.10
2022-10-05T08:28:24.556Z,46.80
2022-10-05T08:30:57.754Z,47.10
2022-10-05T08:33:31.573Z,46.80
2022-10-05T08:36:08.199Z,47.90
2022-10-05T08:38:38.367Z,47.90
2022-10-05T08:41:52.929Z,47.70
2022-10-05T08:44:57.194Z,46.60
2022-10-05T08:47:58.121Z,45.90
2022-10-05T08:50:48.404Z,45.60
2022-10-05T08:53:26.483Z,45.60
2022-10-05T08:56:11.169Z,44.00
2022-10-05T08:59:22.974Z,43.60
2022-10-05T09:02:16.564Z,44.00
2022-10-05T09:05:01.409Z,44.60
2022-10-05T09:08:06.598Z,44.20
2022-10-05T09:11:03.699Z,44.20
2022-10-05T09:13:48.215Z,43.90
2022-10-05T09:16:33.458Z,43.90
2022-10-05T09:19:47.773Z,44.20
2022-10-05T09:22:17.610Z,45.20
2022-10-05T09:24:56.944Z,45.40
2022-10-05T09:27:37.895Z,44.70
2022-10-05T09:30:32.907Z,44.00
2022-10-05T09:33:29.841Z,43.90
2022-10-05T09:36:36.136Z,45.10
2022-10-05T09:39:28.461Z,44.60
2022-10-05T09:42:48.555Z,43.90
2022-10-05T09:45:36.881Z,44.90
2022-10-05T09:48:36.867Z,44.00
2022-10-05T09:51:29.071Z,43.80
2022-10-05T09:54:29.159Z,43.50
2022-10-05T09:57:35.743Z,41.50
2022-10-05T10:00:45.856Z,42.40
2022-10-05T10:04:07.060Z,42.70
2022-10-05T10:07:14.056Z,43.10
2022-10-05T10:09:54.365Z,42.60
2022-10-05T10:12:48.567Z,43.20
2022-10-05T10:15:43.758Z,43.70
2022-10-05T10:18:47.257Z,42.80
2022-10-05T10:21:33.060Z,42.70
2022-10-05T10:24:14.701Z,43.10
2022-10-05T10:27:02.541Z,43.60
2022-10-05T10:30:27.596Z,42.90
2022-10-05T10:33:16.489Z,42.80
2022-10-05T10:35:55.554Z,43.10
2022-10-05T10:38:42.542Z,42.20
2022-10-05T10:41:52.817Z,42.10
2022-10-05T10:44:58.812Z,41.90
2022-10-05T10:48:02.473Z,42.40
2022-10-05T10:50:57.809Z,42.80
2022-10-05T10:54:09.601Z,41.50
2022-10-05T10:57:03.038Z,41.50
2022-10-05T11:00:15.667Z,41.70
2022-10-05T11:03:16.548Z,42.20
2022-10-05T11:06:23.585Z,43.30
2022-10-05T11:09:23.412Z,43.10
2022-10-05T11:12:20.522Z,42.80
2022-10-05T11:15:05.724Z,42.70
2022-10-05T11:17:53.829Z,42.90
2022-10-05T11:21:01.256Z,42.80
2022-10-05T11:23:43.760Z,41.50
2022-10-05T11:26:33.602Z,42.70
2022-10-05T11:29:31.161Z,42.60
2022-10-05T11:32:21.754Z,42.90
2022-10-05T11:35:31.018Z,41.10
2022-10-05T11:38:15.450Z,42.50
2022-10-05T11:41:18.657Z,43.00
2022-10-05T11:44:15.386Z,42.60
2022-10-05T11:46:54.342Z,42.20
2022-10-05T11:49:40.060Z,41.90
2022-10-05T11:52:14.433Z,42.20
2022-10-05T11:55:11.098Z,42.20
2022-10-05T11:57:48.890Z,42.70
2022-10-05T12:00:19.526Z,42.60
2022-10-05T12:03:20.233Z,42.70
2022-10-05T12:06:05.442Z,42.00
2022-10-05T12:08:43.813Z,41.90
2022-10-05T12:11:30.176Z,41.80
2022-10-05T12:14:06.578Z,41.30
2022-10-05T12:16:41.299Z,41.60
2022-10-05T12:19:17.375Z,41.70
2022-10-05T12:21:50.943Z,41.90
2022-10-05T12:24:27.883Z,41.60
2022-10-05T12:27:02.251Z,41.60
2022-10-05T12:29:39.359Z,41.00
2022-10-05T12:32:13.628Z,41.70
2022-10-05T12:34:50.429Z,42.40
2022-10-05T12:37:38.803Z,41.20
2022-10-05T12:40:22.520Z,42.00
2022-10-05T12:42:58.101Z,41.70
2022-10-05T12:45:45.999Z,42.10
2022-10-05T12:48:44.221Z,41.20
2022-10-05T12:51:20.689Z,41.90
2022-10-05T12:53:57.788Z,42.00
2022-10-05T12:56:37.713Z,42.20
2022-10-05T12:59:14.727Z,41.20
2022-10-05T13:01:54.934Z,41.50
2022-10-05T13:04:33.967Z,41.30
2022-10-05T13:07:33.421Z,40.70
2022-10-05T13:10:12.974Z,41.30
2022-10-05T13:12:53.924Z,42.30
2022-10-05T13:15:28.877Z,41.70
2022-10-05T13:18:11.972Z,41.50
2022-10-05T13:20:46.854Z,42.20
2022-10-05T13:23:22.590Z,41.00
2022-10-05T13:25:58.261Z,41.60
2022-10-05T13:28:32.332Z,40.30
2022-10-05T13:31:07.327Z,40.20
2022-10-05T13:33:55.070Z,40.80
2022-10-05T13:36:30.007Z,41.60
2022-10-05T13:39:03.672Z,40.90
2022-10-05T13:41:43.711Z,42.10
2022-10-05T13:44:22.172Z,42.00
2022-10-05T13:46:55.077Z,42.20
2022-10-05T13:49:29.651Z,41.20
2022-10-05T13:52:07.611Z,42.30
2022-10-05T13:54:42.947Z,41.80
2022-10-05T13:57:21.117Z,41.40
2022-10-05T13:59:54.626Z,42.20
2022-10-05T14:02:28.350Z,42.30
2022-10-05T14:05:02.116Z,42.30
2022-10-05T14:07:35.093Z,42.90
2022-10-05T14:10:05.113Z,42.30
2022-10-05T14:12:40.714Z,42.30
2022-10-05T14:15:23.297Z,42.40
2022-10-05T14:17:52.652Z,42.20
2022-10-05T14:20:25.133Z,42.00
2022-10-05T14:22:58.284Z,42.10
2022-10-05T14:25:26.467Z,40.70
2022-10-05T14:28:02.486Z,41.80
2022-10-05T14:30:32.501Z,39.90
2022-10-05T14:33:16.218Z,40.40
2022-10-05T14:35:51.189Z,40.60
2022-10-05T14:38:21.920Z,41.00
2022-10-05T14:41:17.143Z,40.80
2022-10-05T14:43:59.832Z,41.30
2022-10-05T14:46:29.849Z,40.40
2022-10-05T14:49:22.680Z,40.80
2022-10-05T14:51:53.301Z,40.50
2022-10-05T14:54:33.814Z,40.60
2022-10-05T14:57:08.162Z,38.10
2022-10-05T15:00:10.314Z,38.10
2022-10-05T15:02:56.943Z,39.60
2022-10-05T15:05:31.352Z,39.60
2022-10-05T15:08:09.633Z,40.40
2022-10-05T15:10:44.032Z,40.20
2022-10-05T15:13:16.550Z,39.80
2022-10-05T15:15:50.691Z,40.40
2022-10-05T15:18:37.333Z,40.90
2022-10-05T15:21:33.999Z,40.60
2022-10-05T15:24:07.127Z,41.40
2022-10-05T15:26:47.104Z,42.20
2022-10-05T15:29:47.337Z,41.90
2022-10-05T15:32:28.823Z,41.60
2022-10-05T15:35:17.676Z,43.10
2022-10-05T15:37:51.587Z,43.00
2022-10-05T15:40:25.694Z,43.20
2022-10-05T15:43:03.295Z,43.20
2022-10-05T15:45:34.852Z,43.50
2022-10-05T15:48:06.258Z,43.50
2022-10-05T15:50:42.550Z,43.30
2022-10-05T15:53:19.762Z,43.50
2022-10-05T15:55:53.146Z,43.60
2022-10-05T15:58:54.135Z,43.80
2022-10-05T16:01:42.737Z,43.80
2022-10-05T16:04:17.816Z,44.40
2022-10-05T16:07:08.824Z,44.50
2022-10-05T16:09:53.468Z,44.60
2022-10-05T16:12:43.105Z,44.40
2022-10-05T16:15:22.079Z,44.60
2022-10-05T16:18:12.122Z,44.50
2022-10-05T16:20:49.924Z,44.60
2022-10-05T16:23:29.757Z,45.20
2022-10-05T16:26:11.538Z,45.40
2022-10-05T16:28:49.953Z,46.40
2022-10-05T16:31:23.392Z,46.20
2022-10-05T16:34:02.015Z,46.20
2022-10-05T16:36:44.413Z,45.90
2022-10-05T16:39:20.399Z,45.50
2022-10-05T16:41:54.780Z,45.70
2022-10-05T16:44:35.449Z,45.80
2022-10-05T16:47:27.586Z,46.00
2022-10-05T16:50:04.748Z,45.80
2022-10-05T16:52:34.878Z,45.80
2022-10-05T16:55:12.016Z,45.70
2022-10-05T16:57:46.419Z,46.50
2022-10-05T17:00:23.533Z,46.80
2022-10-05T17:03:12.502Z,47.00
2022-10-05T17:05:55.590Z,47.30
2022-10-05T17:08:49.635Z,47.00
2022-10-05T17:11:33.181Z,47.10
2022-10-05T17:14:18.677Z,47.00
2022-10-05T17:17:15.973Z,47.50
2022-10-05T17:20:10.422Z,47.70
2022-10-05T17:22:50.735Z,47.90
2022-10-05T17:25:26.129Z,48.00
2022-10-05T17:27:56.026Z,48.10
2022-10-05T17:30:38.764Z,48.00
2022-10-05T17:33:24.756Z,48.30
2022-10-05T17:36:17.010Z,48.30
2022-10-05T17:38:51.170Z,48.00
2022-10-05T17:41:23.710Z,48.20
2022-10-05T17:44:24.432Z,48.30
2022-10-05T17:46:55.087Z,48.30
2022-10-05T17:50:15.790Z,48.70
2022-10-05T17:53:03.057Z,48.20
2022-10-05T17:56:02.154Z,47.90
2022-10-05T17:58:58.247Z,47.80
2022-10-05T18:01:30.283Z,47.70
2022-10-05T18:04:30.390Z,47.90
2022-10-05T18:07:05.729Z,47.90
2022-10-05T18:09:54.146Z,48.10
2022-10-05T18:12:45.327Z,48.70
2022-10-05T18:15:48.426Z,49.40
2022-10-05T18:18:38.897Z,49.50
2022-10-05T18:21:32.854Z,49.60
2022-10-05T18:24:34.223Z,49.30
2022-10-05T18:27:26.460Z,49.20
2022-10-05T18:30:13.962Z,48.90
2022-10-05T18:33:10.129Z,49.20
2022-10-05T18:35:50.702Z,48.60
2022-10-05T18:38:35.065Z,48.80
2022-10-05T18:41:14.961Z,48.40
2022-10-05T18:43:51.269Z,48.50
2022-10-05T18:46:35.671Z,48.60
2022-10-05T18:49:11.303Z,49.20
2022-10-05T18:51:51.915Z,48.70
2022-10-05T18:54:34.788Z,48.50
2022-10-05T18:57:31.513Z,48.50
2022-10-05T19:00:04.817Z,48.50
2022-10-05T19:02:38.685Z,48.80
2022-10-05T19:05:46.389Z,48.30
2022-10-05T19:08:18.866Z,47.80
2022-10-05T19:10:51.566Z,47.50
2022-10-05T19:13:33.178Z,47.10
2022-10-05T19:16:15.529Z,46.90
2022-10-05T19:19:12.642Z,46.80
2022-10-05T19:21:55.647Z,46.50
2022-10-05T19:24:46.827Z,46.50
2022-10-05T19:27:22.883Z,46.60
2022-10-05T19:30:15.471Z,46.80
2022-10-05T19:32:54.022Z,46.50
2022-10-05T19:35:29.463Z,46.40
2022-10-05T19:38:15.227Z,46.10
2022-10-05T19:40:57.255Z,46.10
2022-10-05T19:43:46.575Z,45.70
2022-10-05T19:46:25.305Z,46.00
2022-10-05T19:48:54.731Z,45.70
2022-10-05T19:51:30.319Z,45.50
2022-10-05T19:54:02.861Z,45.50
2022-10-05T19:56:34.712Z,45.50
2022-10-05T19:59:13.373Z,46.10
2022-10-05T20:01:51.027Z,47.10
2022-10-05T20:04:33.936Z,47.40
2022-10-05T20:07:02.247Z,47.10
2022-10-05T20:09:31.015Z,47.00
2022-10-05T20:12:03.823Z,47.00
2022-10-05T20:14:32.883Z,47.00
2022-10-05T20:17:45.632Z,46.80
2022-10-05T20:20:36.482Z,46.80
2022-10-05T20:23:21.995Z,46.60
2022-10-05T20:26:10.671Z,46.50
2022-10-05T20:28:39.002Z,46.30
2022-10-05T20:31:07.770Z,46.20
2022-10-05T20:33:37.087Z,46.00
2022-10-05T20:36:05.659Z,45.90
2022-10-05T20:38:40.083Z,45.80
2022-10-05T20:41:12.271Z,45.90
2022-10-05T20:43:42.457Z,46.30
2022-10-05T20:46:10.412Z,45.80
2022-10-05T20:48:42.371Z,45.80
2022-10-05T20:51:10.297Z,46.00
2022-10-05T20:53:38.184Z,45.90
2022-10-05T20:56:06.594Z,46.10
2022-10-05T20:58:34.497Z,46.30
2022-10-05T21:01:19.587Z,46.20
2022-10-05T21:03:49.606Z,46.10
2022-10-05T21:06:18.860Z,46.40
2022-10-05T21:08:47.117Z,46.80
2022-10-05T21:11:15.271Z,46.80
2022-10-05T21:13:45.123Z,46.30
2022-10-05T21:16:13.944Z,46.30
2022-10-05T21:18:42.374Z,46.60
2022-10-05T21:21:12.041Z,47.20
2022-10-05T21:23:39.996Z,47.00
2022-10-05T21:26:08.277Z,46.90
2022-10-05T21:28:36.582Z,46.90
2022-10-05T21:31:04.531Z,46.40
2022-10-05T21:33:32.596Z,46.10
2022-10-05T21:36:00.665Z,46.20
2022-10-05T21:38:30.595Z,45.90
2022-10-05T21:40:58.716Z,45.90
2022-10-05T21:43:27.150Z,46.20
2022-10-05T21:45:57.816Z,46.50
2022-10-05T21:48:26.955Z,46.70
2022-10-05T21:50:55.466Z,47.20
2022-10-05T21:53:28.270Z,48.20
2022-10-05T21:56:02.703Z,48.30
2022-10-05T21:58:31.801Z,47.90
2022-10-05T22:00:59.890Z,47.90
2022-10-05T22:03:30.938Z,48.50
2022-10-05T22:05:58.977Z,48.60
2022-10-05T22:08:29.823Z,48.20
2022-10-05T22:11:00.039Z,47.80
2022-10-05T22:13:40.089Z,47.50
2022-10-05T22:16:08.540Z,47.30
2022-10-05T22:18:36.525Z,47.40
2022-10-05T22:21:06.155Z,47.00
2022-10-05T22:23:35.688Z,47.20
2022-10-05T22:26:06.095Z,47.10
2022-10-05T22:28:35.264Z,46.80
2022-10-05T22:31:05.587Z,47.20
2022-10-05T22:33:33.641Z,46.80
2022-10-05T22:36:01.722Z,47.50
2022-10-05T22:38:30.873Z,47.60
2022-10-05T22:40:59.037Z,47.50
2022-10-05T22:43:28.926Z,47.30
2022-10-05T22:45:57.185Z,48.30
2022-10-05T22:48:25.399Z,47.80
2022-10-05T22:50:53.579Z,47.50
2022-10-05T22:53:21.493Z,47.90
2022-10-05T22:55:49.376Z,48.00
2022-10-05T22:58:17.301Z,47.90
2022-10-05T23:00:58.345Z,48.00
2022-10-05T23:03:27.810Z,47.90
2022-10-05T23:06:00.092Z,48.30
2022-10-05T23:08:30.956Z,47.50
2022-10-05T23:11:03.007Z,47.50
2022-10-05T23:13:31.667Z,47.30
2022-10-05T23:16:06.803Z,47.40
2022-10-05T23:18:35.296Z,47.80
2022-10-05T23:21:03.485Z,47.70
2022-10-05T23:23:31.376Z,47.90
2022-10-05T23:26:03.091Z,47.80
2022-10-05T23:28:31.854Z,47.70
2022-10-05T23:31:02.380Z,47.50
2022-10-05T23:33:31.349Z,47.80
2022-10-05T23:36:00.350Z,48.10
2022-10-05T23:38:28.843Z,48.10
2022-10-05T23:40:59.771Z,48.20
2022-10-05T23:43:28.571Z,48.00
2022-10-05T23:45:57.094Z,48.60
2022-10-05T23:48:26.904Z,48.80
2022-10-05T23:50:56.368Z,49.60
2022-10-05T23:53:24.493Z,49.00
2022-10-05T23:55:53.225Z,48.80
2022-10-05T23:58:22.238Z,49.20
